createdAt,value
2023-01-13T00:00:39.417Z,59.53
2023-01-13T00:04:42.323Z,59.93
2023-01-13T00:08:45.466Z,59.18
2023-01-13T00:12:48.521Z,60.04
2023-01-13T00:16:52.820Z,60.40
2023-01-13T00:21:02.850Z,59.95
2023-01-13T00:25:06.846Z,60.36
2023-01-13T00:29:09.833Z,60.73
2023-01-13T00:33:14.430Z,60.69
2023-01-13T00:37:17.607Z,60.06
2023-01-13T00:41:22.914Z,60.16
2023-01-13T00:45:26.059Z,59.20
2023-01-13T00:49:30.572Z,59.01
2023-01-13T00:53:36.322Z,58.09
2023-01-13T00:57:40.272Z,57.40
2023-01-13T01:01:43.519Z,57.54
2023-01-13T01:05:48.565Z,56.94
2023-01-13T01:09:51.455Z,56.48
2023-01-13T01:13:56.128Z,55.90
2023-01-13T01:17:59.016Z,56.31
2023-01-13T01:22:03.373Z,55.96
2023-01-13T01:26:08.622Z,54.88
2023-01-13T01:30:12.967Z,54.57
2023-01-13T01:34:16.070Z,55.25
2023-01-13T01:38:21.469Z,55.63
2023-01-13T01:42:41.981Z,55.64
2023-01-13T01:46:47.357Z,56.61
2023-01-13T01:50:52.741Z,56.34
2023-01-13T01:55:01.981Z,56.54
2023-01-13T01:59:04.919Z,55.18
2023-01-13T02:03:10.320Z,56.23
2023-01-13T02:07:13.359Z,55.06
2023-01-13T02:11:54.161Z,56.64
2023-01-13T02:16:08.815Z,56.13
2023-01-13T02:20:39.277Z,56.39
2023-01-13T02:25:13.330Z,55.42
2023-01-13T02:29:51.951Z,55.02
2023-01-13T02:34:05.701Z,55.08
2023-01-13T02:38:11.749Z,54.07
2023-01-13T02:42:36.268Z,53.96
2023-01-13T02:46:58.563Z,55.86
2023-01-13T02:51:07.349Z,55.21
2023-01-13T02:55:15.365Z,55.26
2023-01-13T02:59:21.418Z,55.38
2023-01-13T03:03:26.311Z,54.88
2023-01-13T03:08:01.825Z,55.20
2023-01-13T03:12:16.961Z,54.23
2023-01-13T03:16:31.296Z,55.60
2023-01-13T03:20:43.965Z,54.79
2023-01-13T03:24:52.033Z,55.07
2023-01-13T03:29:02.987Z,54.90
2023-01-13T03:33:11.728Z,55.24
2023-01-13T03:37:20.640Z,55.18
2023-01-13T03:41:28.317Z,55.02
2023-01-13T03:45:34.941Z,55.99
2023-01-13T03:49:42.398Z,55.29
2023-01-13T03:53:49.836Z,54.19
2023-01-13T03:57:59.874Z,53.96
2023-01-13T04:02:08.395Z,53.52
2023-01-13T04:06:17.393Z,54.37
2023-01-13T04:10:26.833Z,54.79
2023-01-13T04:14:30.890Z,54.69
2023-01-13T04:18:34.089Z,54.24
2023-01-13T04:22:37.561Z,54.68
2023-01-13T04:26:42.197Z,55.03
2023-01-13T04:30:46.406Z,55.17
2023-01-13T04:34:49.458Z,55.53
2023-01-13T04:38:52.707Z,55.78
2023-01-13T04:42:57.651Z,55.72
2023-01-13T04:47:01.177Z,55.74
2023-01-13T04:51:04.172Z,56.63
2023-01-13T04:55:08.731Z,56.42
2023-01-13T04:59:14.562Z,56.01
2023-01-13T05:03:17.924Z,55.81
2023-01-13T05:07:23.326Z,56.15
2023-01-13T05:11:43.887Z,55.94
2023-01-13T05:16:17.549Z,56.56
2023-01-13T05:20:20.948Z,56.58
2023-01-13T05:24:41.623Z,57.54
2023-01-13T05:28:44.532Z,56.59
2023-01-13T05:32:49.522Z,57.83
2023-01-13T05:36:52.723Z,57.76
2023-01-13T05:41:13.324Z,57.97
2023-01-13T05:45:16.583Z,57.85
2023-01-13T05:49:21.313Z,58.46
2023-01-13T05:53:25.800Z,58.83
2023-01-13T05:57:29.026Z,58.52
2023-01-13T06:01:32.144Z,58.20
2023-01-13T06:05:36.783Z,58.92
2023-01-13T06:09:39.872Z,58.60
2023-01-13T06:13:43.175Z,59.08
2023-01-13T06:17:46.535Z,58.88
2023-01-13T06:21:51.154Z,58.88
2023-01-13T06:26:02.307Z,59.94
2023-01-13T06:30:06.182Z,59.28
2023-01-13T06:34:13.624Z,59.67
2023-01-13T06:38:21.471Z,59.76
2023-01-13T06:42:41.714Z,59.75
2023-01-13T06:46:44.749Z,59.85
2023-01-13T06:50:47.948Z,60.41
2023-01-13T06:54:52.455Z,61.00
2023-01-13T06:58:55.404Z,61.48
2023-01-13T07:03:08.091Z,61.56
2023-01-13T07:07:12.693Z,61.20
2023-01-13T07:11:17.324Z,61.17
2023-01-13T07:15:20.670Z,61.13
2023-01-13T07:19:25.052Z,61.43
2023-01-13T07:23:29.669Z,61.64
2023-01-13T07:27:34.229Z,61.36
2023-01-13T07:31:37.545Z,60.68
2023-01-13T07:35:40.548Z,61.65
2023-01-13T07:39:45.462Z,61.68
2023-01-13T07:43:49.951Z,62.27
2023-01-13T07:47:54.561Z,62.15
2023-01-13T07:51:57.616Z,62.31
2023-01-13T07:56:02.365Z,61.98
2023-01-13T08:00:08.668Z,61.68
2023-01-13T08:04:11.722Z,62.48
2023-01-13T08:08:14.676Z,61.79
2023-01-13T08:12:35.141Z,61.89
2023-01-13T08:16:40.105Z,63.72
2023-01-13T08:20:43.345Z,63.99
2023-01-13T08:24:46.573Z,62.10
2023-01-13T08:28:49.874Z,62.46
2023-01-13T08:32:54.668Z,62.35
2023-01-13T08:36:57.747Z,62.71
2023-01-13T08:41:00.856Z,62.30
2023-01-13T08:45:04.097Z,61.74
2023-01-13T08:49:08.695Z,61.88
2023-01-13T08:53:11.936Z,61.84
2023-01-13T08:57:16.237Z,62.06
2023-01-13T09:01:23.501Z,61.78
2023-01-13T09:05:28.040Z,62.22
2023-01-13T09:09:31.210Z,61.01
2023-01-13T09:13:34.078Z,59.77
2023-01-13T09:17:37.044Z,60.54
2023-01-13T09:21:41.747Z,59.90
2023-01-13T09:25:44.935Z,60.08
2023-01-13T09:29:48.363Z,61.37
2023-01-13T09:34:09.102Z,59.58
2023-01-13T09:38:13.458Z,60.92
2023-01-13T09:42:40.860Z,60.73
2023-01-13T09:46:48.875Z,59.56
2023-01-13T09:51:02.558Z,61.50
2023-01-13T09:55:14.560Z,60.50
2023-01-13T09:59:19.770Z,59.63
2023-01-13T10:03:26.446Z,59.72
2023-01-13T10:07:33.429Z,60.08
2023-01-13T10:12:08.259Z,59.16
2023-01-13T10:16:27.771Z,59.73
2023-01-13T10:20:36.412Z,56.94
2023-01-13T10:25:04.455Z,57.51
2023-01-13T10:29:21.717Z,57.87
2023-01-13T10:33:28.555Z,57.17
2023-01-13T10:37:32.141Z,58.26
2023-01-13T10:41:36.384Z,56.04
2023-01-13T10:45:40.985Z,56.83
2023-01-13T10:49:43.908Z,56.46
2023-01-13T10:53:52.203Z,56.19
2023-01-13T10:57:55.576Z,57.53
2023-01-13T11:02:13.177Z,57.14
2023-01-13T11:06:29.558Z,57.05
2023-01-13T11:10:34.449Z,56.85
2023-01-13T11:14:41.902Z,57.55
2023-01-13T11:19:02.652Z,56.56
2023-01-13T11:23:15.939Z,57.05
2023-01-13T11:27:23.416Z,55.04
2023-01-13T11:31:31.385Z,57.69
2023-01-13T11:35:41.729Z,58.37
2023-01-13T11:39:53.905Z,57.51
2023-01-13T11:44:06.044Z,57.73
2023-01-13T11:48:15.730Z,58.21
2023-01-13T11:52:24.708Z,57.98
2023-01-13T11:56:50.431Z,59.15
2023-01-13T12:01:04.147Z,58.78
2023-01-13T12:05:17.032Z,60.01
2023-01-13T12:09:28.396Z,61.22
2023-01-13T12:13:42.210Z,60.18
2023-01-13T12:17:59.202Z,62.38
2023-01-13T12:22:12.587Z,62.14
2023-01-13T12:26:20.234Z,60.61
2023-01-13T12:30:28.717Z,63.10
2023-01-13T12:34:48.683Z,63.29
2023-01-13T12:38:58.035Z,64.33
2023-01-13T12:43:48.744Z,64.55
2023-01-13T12:47:52.224Z,63.33
2023-01-13T12:52:07.941Z,64.87
2023-01-13T12:56:42.576Z,61.41
2023-01-13T13:01:01.982Z,63.50
2023-01-13T13:05:57.140Z,63.16
2023-01-13T13:10:06.078Z,62.22
2023-01-13T13:14:13.010Z,62.79
2023-01-13T13:18:28.605Z,62.65
2023-01-13T13:22:46.238Z,62.88
2023-01-13T13:26:49.799Z,63.09
2023-01-13T13:31:11.312Z,62.74
2023-01-13T13:35:30.011Z,62.52
2023-01-13T13:39:51.789Z,62.44
2023-01-13T13:44:12.546Z,62.64
2023-01-13T13:48:25.537Z,61.69
2023-01-13T13:52:38.075Z,61.73
2023-01-13T13:56:45.110Z,62.98
2023-01-13T14:00:50.517Z,62.23
2023-01-13T14:05:08.927Z,63.29
2023-01-13T14:09:19.049Z,61.78
2023-01-13T14:13:25.200Z,63.19
2023-01-13T14:17:30.124Z,62.20
2023-01-13T14:21:33.608Z,63.37
2023-01-13T14:25:40.787Z,64.34
2023-01-13T14:29:44.346Z,65.62
2023-01-13T14:33:48.927Z,65.24
2023-01-13T14:37:54.599Z,64.84
2023-01-13T14:41:58.863Z,64.09
2023-01-13T14:46:03.995Z,62.16
2023-01-13T14:50:18.729Z,62.97
2023-01-13T14:54:48.017Z,63.73
2023-01-13T14:58:52.584Z,62.26
2023-01-13T15:03:07.996Z,62.81
2023-01-13T15:07:24.625Z,61.60
2023-01-13T15:11:30.104Z,61.23
2023-01-13T15:15:36.658Z,61.33
2023-01-13T15:19:39.900Z,61.47
2023-01-13T15:23:43.642Z,61.61
2023-01-13T15:27:48.204Z,60.83
2023-01-13T15:31:52.650Z,61.12
2023-01-13T15:35:56.424Z,60.31
2023-01-13T15:39:59.353Z,60.78
2023-01-13T15:44:19.849Z,59.75
2023-01-13T15:48:26.765Z,59.49
2023-01-13T15:52:29.668Z,59.67
2023-01-13T15:56:36.652Z,60.67
2023-01-13T16:00:39.905Z,58.69
2023-01-13T16:04:44.863Z,60.17
2023-01-13T16:08:48.529Z,58.67
2023-01-13T16:12:51.700Z,59.02
2023-01-13T16:16:55.008Z,58.02
2023-01-13T16:20:59.305Z,58.14
2023-01-13T16:25:02.268Z,58.85
2023-01-13T16:29:05.981Z,61.44
2023-01-13T16:33:09.018Z,60.76
2023-01-13T16:37:20.974Z,61.42
2023-01-13T16:41:25.270Z,62.39
2023-01-13T16:45:29.376Z,63.21
2023-01-13T16:49:32.261Z,63.74
2023-01-13T16:53:36.807Z,64.26
2023-01-13T16:57:39.913Z,64.85
2023-01-13T17:01:45.145Z,65.09
2023-01-13T17:05:48.984Z,65.03
2023-01-13T17:09:53.711Z,66.06
2023-01-13T17:13:56.907Z,66.31
2023-01-13T17:17:59.911Z,66.47
2023-01-13T17:22:03.118Z,66.54
2023-01-13T17:26:08.477Z,66.77
2023-01-13T17:30:14.599Z,67.16
2023-01-13T17:34:17.802Z,67.51
2023-01-13T17:38:21.887Z,67.24
2023-01-13T17:42:28.955Z,67.21
2023-01-13T17:46:32.052Z,67.14
2023-01-13T17:50:35.240Z,66.75
2023-01-13T17:54:40.180Z,65.45
2023-01-13T17:58:45.561Z,65.61
2023-01-13T18:02:48.919Z,65.32
2023-01-13T18:06:51.891Z,65.04
2023-01-13T18:10:57.656Z,64.76
2023-01-13T18:15:02.153Z,64.75
2023-01-13T18:19:23.162Z,64.40
2023-01-13T18:23:43.571Z,63.78
2023-01-13T18:27:47.304Z,63.53
2023-01-13T18:31:52.559Z,64.09
2023-01-13T18:35:55.925Z,63.91
2023-01-13T18:39:58.837Z,64.35
2023-01-13T18:44:02.063Z,64.27
2023-01-13T18:48:09.240Z,64.60
2023-01-13T18:52:12.625Z,64.34
2023-01-13T18:56:16.173Z,65.16
2023-01-13T19:00:21.941Z,64.49
2023-01-13T19:04:27.142Z,64.24
2023-01-13T19:08:31.167Z,64.65
2023-01-13T19:12:34.409Z,64.16
2023-01-13T19:16:37.347Z,64.57
2023-01-13T19:20:41.881Z,64.17
2023-01-13T19:24:44.987Z,63.96
2023-01-13T19:28:48.818Z,64.32
2023-01-13T19:32:53.736Z,64.65
2023-01-13T19:36:58.224Z,64.58
2023-01-13T19:41:05.012Z,64.64
2023-01-13T19:45:26.787Z,64.42
2023-01-13T19:49:30.134Z,64.58
2023-01-13T19:53:34.553Z,64.61
2023-01-13T19:57:39.472Z,64.43
2023-01-13T20:01:42.961Z,64.57
2023-01-13T20:05:46.763Z,64.92
2023-01-13T20:09:51.352Z,65.29
2023-01-13T20:13:54.572Z,65.30
2023-01-13T20:17:58.877Z,65.35
2023-01-13T20:22:02.149Z,65.67
2023-01-13T20:26:08.795Z,66.12
2023-01-13T20:30:15.243Z,66.44
2023-01-13T20:34:19.654Z,66.55
2023-01-13T20:38:22.883Z,65.31
2023-01-13T20:42:39.904Z,64.43
2023-01-13T20:46:44.877Z,65.05
2023-01-13T20:50:53.478Z,64.81
2023-01-13T20:54:56.609Z,64.65
2023-01-13T20:59:01.423Z,64.50
2023-01-13T21:03:04.344Z,64.51
2023-01-13T21:07:08.376Z,64.87
2023-01-13T21:11:15.185Z,65.58
2023-01-13T21:15:22.128Z,65.75
2023-01-13T21:19:25.306Z,65.77
2023-01-13T21:23:28.292Z,65.81
2023-01-13T21:27:31.875Z,66.14
2023-01-13T21:31:36.399Z,67.03
2023-01-13T21:35:40.436Z,66.78
2023-01-13T21:39:44.336Z,67.25
2023-01-13T21:44:04.751Z,66.94
2023-01-13T21:48:09.700Z,67.43
2023-01-13T21:52:13.545Z,66.97
2023-01-13T21:56:16.816Z,67.16
2023-01-13T22:00:21.484Z,67.62
2023-01-13T22:04:25.970Z,67.35
2023-01-13T22:08:29.323Z,67.95
2023-01-13T22:12:32.841Z,67.83
2023-01-13T22:16:39.425Z,68.35
2023-01-13T22:20:43.945Z,68.72
2023-01-13T22:24:49.761Z,68.52
2023-01-13T22:28:53.107Z,68.41
2023-01-13T22:32:56.221Z,68.62
2023-01-13T22:37:01.317Z,68.38
2023-01-13T22:41:07.715Z,68.70
2023-01-13T22:45:13.149Z,69.52
2023-01-13T22:49:17.466Z,69.89
2023-01-13T22:53:22.707Z,69.97
2023-01-13T22:57:27.353Z,70.85
2023-01-13T23:01:33.182Z,70.18
2023-01-13T23:05:36.283Z,70.93
2023-01-13T23:09:40.882Z,71.87
2023-01-13T23:13:44.935Z,72.05
2023-01-13T23:17:50.282Z,72.58
2023-01-13T23:21:53.872Z,72.86
2023-01-13T23:25:58.296Z,71.77
2023-01-13T23:30:01.453Z,71.25
2023-01-13T23:34:04.646Z,70.59
2023-01-13T23:38:07.616Z,70.45
2023-01-13T23:42:12.120Z,70.19
2023-01-13T23:46:16.975Z,69.33
2023-01-13T23:50:20.193Z,68.68
2023-01-13T23:54:23.291Z,68.58
2023-01-13T23:58:27.675Z,67.94
